UAE659 VRMM-OMDB
Flight info
| Callsign | UAE659 |
|---|---|
| Flight time | 1h 10m |
| Altitude | 36000 |
| Route | ELBET1A ELBET L894 KITAL P570 ITURA M762 MIVEK P574 IMPED |
| Aircraft | B77W/H-SDE1E2E3FGHIJ2J3J4J5M1RWXY/LB1D1 |
Departure
| Time | 2026-04-22 13:15 |
|---|---|
| Airport | Velana International Airport (VRMM) |
Arrival
| Time | 2026-04-22 14:25 |
|---|---|
| Airport | Dubai International Airport (OMDB) |
| Time | Latitude | Longitude | Altitude | Speed | Heading |
|---|---|---|---|---|---|
| 2026-04-22 12:41 | 4.18502 | 73.52800 | 17 ft | 0 kts | 269° |
| 2026-04-22 13:07 | 4.18502 | 73.52803 | 17 ft | 2 kts | 269° |
| 2026-04-22 13:07 | 4.18502 | 73.52821 | 17 ft | 3 kts | 269° |
| 2026-04-22 13:07 | 4.18502 | 73.52836 | 17 ft | 3 kts | 262° |
| 2026-04-22 13:07 | 4.18507 | 73.52851 | 19 ft | 3 kts | 213° |
| 2026-04-22 13:08 | 4.18525 | 73.52857 | 20 ft | 3 kts | 180° |
| 2026-04-22 13:08 | 4.18542 | 73.52856 | 20 ft | 1 kts | 178° |
| 2026-04-22 13:08 | 4.18544 | 73.52856 | 20 ft | 0 kts | 178° |
| 2026-04-22 13:11 | 4.18542 | 73.52856 | 17 ft | 3 kts | 178° |
| 2026-04-22 13:11 | 4.18484 | 73.52858 | 17 ft | 12 kts | 179° |
| 2026-04-22 13:11 | 4.18387 | 73.52859 | 17 ft | 18 kts | 179° |
| 2026-04-22 13:12 | 4.18262 | 73.52861 | 17 ft | 18 kts | 179° |
| 2026-04-22 13:12 | 4.18152 | 73.52864 | 17 ft | 8 kts | 170° |
| 2026-04-22 13:12 | 4.18130 | 73.52907 | 17 ft | 8 kts | 73° |
| 2026-04-22 13:12 | 4.18177 | 73.52934 | 17 ft | 8 kts | 31° |
| 2026-04-22 13:13 | 4.18193 | 73.52967 | 17 ft | 0 kts | 83° |
| 2026-04-22 13:14 | 4.18194 | 73.52967 | 17 ft | 0 kts | 83° |
| 2026-04-22 13:14 | 4.18196 | 73.53004 | 17 ft | 12 kts | 86° |
| 2026-04-22 13:14 | 4.18208 | 73.53095 | 17 ft | 7 kts | 52° |
| 2026-04-22 13:14 | 4.18310 | 73.53099 | 17 ft | 40 kts | 359° |
| 2026-04-22 13:15 | 4.18861 | 73.53101 | 17 ft | 115 kts | 360° |
| 2026-04-22 13:15 | 4.19881 | 73.53102 | 17 ft | 176 kts | 1° |
| 2026-04-22 13:15 | 4.21222 | 73.53098 | 308 ft | 198 kts | 0° |
| 2026-04-22 13:15 | 4.22616 | 73.53096 | 938 ft | 200 kts | 0° |
| 2026-04-22 13:16 | 4.24005 | 73.53099 | 1628 ft | 203 kts | 0° |
| 2026-04-22 13:16 | 4.25451 | 73.53115 | 2095 ft | 214 kts | 360° |
| 2026-04-22 13:16 | 4.27014 | 73.53105 | 2409 ft | 236 kts | 359° |
| 2026-04-22 13:16 | 4.28725 | 73.53089 | 2666 ft | 260 kts | 360° |
| 2026-04-22 13:17 | 4.30553 | 73.53085 | 3402 ft | 265 kts | 0° |
| 2026-04-22 13:17 | 4.32434 | 73.53091 | 4078 ft | 275 kts | 0° |
| 2026-04-22 13:17 | 4.34331 | 73.53087 | 5009 ft | 271 kts | 0° |
| 2026-04-22 13:17 | 4.36204 | 73.53077 | 5866 ft | 272 kts | 1° |
| 2026-04-22 13:18 | 4.38131 | 73.53069 | 6497 ft | 280 kts | 1° |
| 2026-04-22 13:18 | 4.40086 | 73.53061 | 7190 ft | 283 kts | 1° |
| 2026-04-22 13:18 | 4.42038 | 73.52817 | 7812 ft | 288 kts | 341° |
| 2026-04-22 13:18 | 4.43797 | 73.51829 | 8429 ft | 294 kts | 323° |
| 2026-04-22 13:19 | 4.45340 | 73.50491 | 9061 ft | 299 kts | 319° |
| 2026-04-22 13:19 | 4.46888 | 73.49082 | 9779 ft | 302 kts | 319° |
| 2026-04-22 13:19 | 4.48474 | 73.47660 | 10345 ft | 311 kts | 319° |
| 2026-04-22 13:19 | 4.50149 | 73.46181 | 10568 ft | 333 kts | 320° |
| 2026-04-22 13:20 | 4.51962 | 73.44605 | 10751 ft | 357 kts | 320° |
| 2026-04-22 13:20 | 4.53902 | 73.42927 | 10993 ft | 378 kts | 320° |
| 2026-04-22 13:20 | 4.55920 | 73.41180 | 11526 ft | 388 kts | 320° |
| 2026-04-22 13:20 | 4.57982 | 73.39392 | 12246 ft | 395 kts | 319° |
| 2026-04-22 13:21 | 4.60064 | 73.37586 | 13086 ft | 398 kts | 319° |
| 2026-04-22 13:21 | 4.62139 | 73.35785 | 13867 ft | 402 kts | 319° |
| 2026-04-22 13:21 | 4.64261 | 73.33943 | 14563 ft | 406 kts | 319° |
| 2026-04-22 13:21 | 4.66407 | 73.32079 | 15258 ft | 410 kts | 319° |
| 2026-04-22 13:22 | 4.68576 | 73.30196 | 15945 ft | 414 kts | 319° |
| 2026-04-22 13:22 | 4.70763 | 73.28298 | 16612 ft | 419 kts | 319° |
| 2026-04-22 13:22 | 4.72976 | 73.26377 | 17275 ft | 423 kts | 319° |
| 2026-04-22 13:22 | 4.75215 | 73.24434 | 17923 ft | 427 kts | 319° |
| 2026-04-22 13:23 | 4.77471 | 73.22475 | 18492 ft | 431 kts | 319° |
| 2026-04-22 13:23 | 4.79720 | 73.20521 | 19018 ft | 436 kts | 319° |
| 2026-04-22 13:23 | 4.82020 | 73.18522 | 19548 ft | 440 kts | 319° |
| 2026-04-22 13:23 | 4.84351 | 73.16497 | 20091 ft | 445 kts | 318° |
| 2026-04-22 13:24 | 4.86697 | 73.14458 | 20616 ft | 449 kts | 318° |
| 2026-04-22 13:24 | 4.89068 | 73.12396 | 21128 ft | 453 kts | 318° |
| 2026-04-22 13:24 | 4.91460 | 73.10317 | 21646 ft | 458 kts | 318° |
| 2026-04-22 13:24 | 4.93879 | 73.08213 | 22151 ft | 462 kts | 318° |
| 2026-04-22 13:25 | 4.96318 | 73.06093 | 22661 ft | 466 kts | 317° |
| 2026-04-22 13:25 | 4.98780 | 73.03952 | 23133 ft | 471 kts | 317° |
| 2026-04-22 13:25 | 5.01257 | 73.01798 | 23569 ft | 475 kts | 317° |
| 2026-04-22 13:25 | 5.03766 | 72.99615 | 24004 ft | 478 kts | 317° |
| 2026-04-22 13:26 | 5.06246 | 72.97459 | 24445 ft | 480 kts | 317° |
| 2026-04-22 13:26 | 5.08773 | 72.95261 | 24894 ft | 482 kts | 317° |
| 2026-04-22 13:26 | 5.11306 | 72.93058 | 25334 ft | 484 kts | 316° |
| 2026-04-22 13:26 | 5.13856 | 72.90838 | 25748 ft | 486 kts | 316° |
| 2026-04-22 13:27 | 5.16424 | 72.88604 | 26162 ft | 489 kts | 316° |
| 2026-04-22 13:27 | 5.19000 | 72.86362 | 26553 ft | 492 kts | 316° |
| 2026-04-22 13:27 | 5.21557 | 72.84136 | 26932 ft | 495 kts | 316° |
| 2026-04-22 13:27 | 5.24164 | 72.81866 | 27314 ft | 497 kts | 316° |
| 2026-04-22 13:28 | 5.26784 | 72.79586 | 27696 ft | 500 kts | 316° |
| 2026-04-22 13:28 | 5.29414 | 72.77296 | 28068 ft | 502 kts | 316° |
| 2026-04-22 13:28 | 5.32058 | 72.74993 | 28419 ft | 505 kts | 316° |
| 2026-04-22 13:28 | 5.34718 | 72.72677 | 28749 ft | 507 kts | 316° |
| 2026-04-22 13:29 | 5.37390 | 72.70350 | 29067 ft | 510 kts | 316° |
| 2026-04-22 13:29 | 5.40073 | 72.68012 | 29368 ft | 512 kts | 316° |
| 2026-04-22 13:29 | 5.42726 | 72.65701 | 29651 ft | 514 kts | 316° |
| 2026-04-22 13:29 | 5.45435 | 72.63341 | 29963 ft | 515 kts | 316° |
| 2026-04-22 13:30 | 5.48143 | 72.60983 | 30246 ft | 516 kts | 316° |
| 2026-04-22 13:30 | 5.50849 | 72.58624 | 30552 ft | 516 kts | 316° |
| 2026-04-22 13:30 | 5.53557 | 72.56265 | 30861 ft | 516 kts | 316° |
| 2026-04-22 13:30 | 5.56275 | 72.53895 | 31195 ft | 516 kts | 316° |
| 2026-04-22 13:31 | 5.58989 | 72.51529 | 31537 ft | 516 kts | 316° |
| 2026-04-22 13:31 | 5.61695 | 72.49170 | 31875 ft | 515 kts | 316° |
| 2026-04-22 13:31 | 5.64356 | 72.46850 | 32209 ft | 515 kts | 316° |
| 2026-04-22 13:31 | 5.67108 | 72.44449 | 32543 ft | 515 kts | 316° |
| 2026-04-22 13:32 | 5.69778 | 72.42120 | 32877 ft | 515 kts | 316° |
| 2026-04-22 13:32 | 5.72482 | 72.39761 | 33206 ft | 515 kts | 316° |
| 2026-04-22 13:32 | 5.75187 | 72.37400 | 33533 ft | 515 kts | 316° |
| 2026-04-22 13:32 | 5.77893 | 72.35039 | 33866 ft | 515 kts | 316° |
| 2026-04-22 13:33 | 5.80600 | 72.32676 | 34167 ft | 514 kts | 315° |
| 2026-04-22 13:33 | 5.83290 | 72.30328 | 34531 ft | 512 kts | 315° |
| 2026-04-22 13:33 | 5.85964 | 72.27994 | 34885 ft | 510 kts | 315° |
| 2026-04-22 13:33 | 5.88648 | 72.25649 | 35164 ft | 509 kts | 315° |
| 2026-04-22 13:34 | 5.91279 | 72.23352 | 35503 ft | 507 kts | 315° |
| 2026-04-22 13:34 | 5.93927 | 72.21039 | 35842 ft | 505 kts | 315° |
| 2026-04-22 13:34 | 5.96594 | 72.18709 | 35819 ft | 509 kts | 315° |
| 2026-04-22 13:35 | 6.01929 | 72.14052 | 35824 ft | 506 kts | 315° |
| 2026-04-22 13:35 | 6.07222 | 72.09431 | 35839 ft | 504 kts | 315° |
| 2026-04-22 13:36 | 6.12473 | 72.04843 | 35837 ft | 502 kts | 315° |
| 2026-04-22 13:36 | 6.17746 | 72.00233 | 35844 ft | 502 kts | 315° |
| 2026-04-22 13:37 | 6.60683 | 71.64885 | 35865 ft | 506 kts | 318° |
| 2026-04-22 13:37 | 7.04923 | 71.30152 | 35843 ft | 505 kts | 318° |
| 2026-04-22 13:38 | 7.48961 | 70.95520 | 35830 ft | 503 kts | 317° |
| 2026-04-22 13:38 | 8.14854 | 70.43447 | 35847 ft | 500 kts | 317° |
| 2026-04-22 13:39 | 8.58641 | 70.08727 | 35851 ft | 499 kts | 317° |
| 2026-04-22 13:39 | 9.02121 | 69.74146 | 35867 ft | 496 kts | 317° |
| 2026-04-22 13:40 | 9.45110 | 69.39839 | 35842 ft | 494 kts | 317° |
| 2026-04-22 13:40 | 9.88104 | 69.05415 | 35839 ft | 491 kts | 317° |
| 2026-04-22 13:41 | 10.30676 | 68.71188 | 35863 ft | 487 kts | 318° |
| 2026-04-22 13:41 | 10.72900 | 68.37130 | 35835 ft | 483 kts | 318° |
| 2026-04-22 13:42 | 11.14559 | 68.03401 | 35842 ft | 479 kts | 318° |
| 2026-04-22 13:42 | 11.56087 | 67.69645 | 35854 ft | 477 kts | 318° |
| 2026-04-22 13:43 | 11.97447 | 67.35904 | 35865 ft | 475 kts | 319° |
| 2026-04-22 13:43 | 12.38615 | 67.02190 | 35856 ft | 473 kts | 319° |
| 2026-04-22 13:44 | 12.79264 | 66.68749 | 35866 ft | 470 kts | 319° |
| 2026-04-22 13:44 | 13.19976 | 66.35121 | 35854 ft | 469 kts | 320° |
| 2026-04-22 13:45 | 13.60538 | 66.01478 | 35863 ft | 468 kts | 320° |
| 2026-04-22 13:45 | 14.00897 | 65.67841 | 35858 ft | 467 kts | 320° |
| 2026-04-22 13:46 | 14.41163 | 65.34121 | 35860 ft | 465 kts | 320° |
| 2026-04-22 13:46 | 14.80919 | 65.00680 | 35868 ft | 464 kts | 320° |
| 2026-04-22 13:47 | 15.20857 | 64.66911 | 35883 ft | 463 kts | 321° |
| 2026-04-22 13:47 | 15.60657 | 64.33087 | 35874 ft | 463 kts | 321° |
| 2026-04-22 13:48 | 16.00433 | 63.99113 | 35881 ft | 462 kts | 321° |
| 2026-04-22 13:48 | 16.39807 | 63.65303 | 35891 ft | 460 kts | 321° |
| 2026-04-22 13:49 | 16.79155 | 63.31334 | 35875 ft | 459 kts | 321° |
| 2026-04-22 13:49 | 17.18019 | 62.96967 | 35891 ft | 457 kts | 320° |
| 2026-04-22 13:50 | 17.56335 | 62.62012 | 35885 ft | 456 kts | 320° |
| 2026-04-22 13:50 | 17.94224 | 62.27262 | 35876 ft | 454 kts | 320° |
| 2026-04-22 13:51 | 18.32131 | 61.92290 | 35863 ft | 453 kts | 320° |
| 2026-04-22 13:51 | 18.69795 | 61.57332 | 35874 ft | 451 kts | 320° |
| 2026-04-22 13:52 | 19.07430 | 61.22194 | 35891 ft | 451 kts | 319° |
| 2026-04-22 13:52 | 19.44892 | 60.86978 | 35861 ft | 450 kts | 319° |
| 2026-04-22 13:53 | 19.81984 | 60.51897 | 35879 ft | 449 kts | 319° |
| 2026-04-22 13:53 | 20.21229 | 60.19613 | 35894 ft | 448 kts | 329° |
| 2026-04-22 13:54 | 20.64134 | 59.92429 | 35858 ft | 449 kts | 328° |
| 2026-04-22 13:54 | 21.06934 | 59.64998 | 35833 ft | 448 kts | 327° |
| 2026-04-22 13:55 | 21.35120 | 59.46783 | 35834 ft | 448 kts | 327° |
| 2026-04-22 13:55 | 21.74703 | 59.21111 | 35834 ft | 447 kts | 327° |
| 2026-04-22 13:56 | 22.17253 | 58.93362 | 35862 ft | 446 kts | 326° |
| 2026-04-22 13:56 | 22.59673 | 58.65477 | 35825 ft | 447 kts | 326° |
| 2026-04-22 13:57 | 23.01801 | 58.37600 | 35865 ft | 447 kts | 326° |
| 2026-04-22 13:57 | 23.22906 | 58.23515 | 35662 ft | 450 kts | 325° |
| 2026-04-22 13:57 | 23.29064 | 58.19395 | 35720 ft | 448 kts | 325° |
| 2026-04-22 13:58 | 23.34363 | 58.15847 | 35800 ft | 446 kts | 325° |
| 2026-04-22 13:58 | 23.46805 | 58.02070 | 35813 ft | 437 kts | 303° |
| 2026-04-22 13:59 | 23.75620 | 57.59570 | 35823 ft | 439 kts | 306° |
| 2026-04-22 13:59 | 23.99714 | 57.25685 | 35800 ft | 438 kts | 306° |
| 2026-04-22 14:00 | 24.03440 | 57.20417 | 35800 ft | 438 kts | 306° |
| 2026-04-22 14:00 | 24.07162 | 57.15155 | 35803 ft | 437 kts | 306° |
| 2026-04-22 14:01 | 24.10883 | 57.09893 | 35794 ft | 437 kts | 306° |
| 2026-04-22 14:01 | 24.14573 | 57.04669 | 35806 ft | 436 kts | 305° |
| 2026-04-22 14:02 | 24.18278 | 56.99416 | 35679 ft | 434 kts | 305° |
| 2026-04-22 14:02 | 24.20106 | 56.96825 | 35397 ft | 426 kts | 305° |
| 2026-04-22 14:02 | 24.21902 | 56.94277 | 34753 ft | 424 kts | 305° |
| 2026-04-22 14:03 | 24.23718 | 56.91691 | 33708 ft | 432 kts | 305° |
| 2026-04-22 14:03 | 24.25549 | 56.89077 | 32415 ft | 442 kts | 306° |
| 2026-04-22 14:03 | 24.27437 | 56.86379 | 31063 ft | 453 kts | 306° |
| 2026-04-22 14:03 | 24.29378 | 56.83606 | 29932 ft | 460 kts | 306° |
| 2026-04-22 14:04 | 24.31322 | 56.80832 | 29096 ft | 457 kts | 306° |
| 2026-04-22 14:04 | 24.33243 | 56.78089 | 28475 ft | 450 kts | 306° |
| 2026-04-22 14:04 | 24.35139 | 56.75380 | 27844 ft | 445 kts | 306° |
| 2026-04-22 14:04 | 24.37007 | 56.72708 | 27166 ft | 441 kts | 305° |
| 2026-04-22 14:05 | 24.38864 | 56.70047 | 26470 ft | 439 kts | 305° |
| 2026-04-22 14:05 | 24.40725 | 56.67382 | 25756 ft | 437 kts | 305° |
| 2026-04-22 14:05 | 24.44461 | 56.62210 | 24467 ft | 435 kts | 310° |
| 2026-04-22 14:06 | 24.46531 | 56.59796 | 23848 ft | 433 kts | 311° |
| 2026-04-22 14:06 | 24.48598 | 56.57415 | 23233 ft | 427 kts | 311° |
| 2026-04-22 14:06 | 24.50652 | 56.55045 | 22489 ft | 429 kts | 311° |
| 2026-04-22 14:06 | 24.52702 | 56.52668 | 21937 ft | 426 kts | 311° |
| 2026-04-22 14:07 | 24.54701 | 56.50343 | 21031 ft | 417 kts | 311° |
| 2026-04-22 14:07 | 24.56677 | 56.48035 | 20473 ft | 414 kts | 311° |
| 2026-04-22 14:07 | 24.58641 | 56.45740 | 19882 ft | 412 kts | 311° |
| 2026-04-22 14:07 | 24.60716 | 56.43617 | 19201 ft | 414 kts | 319° |
| 2026-04-22 14:08 | 24.63056 | 56.41761 | 18567 ft | 416 kts | 326° |
| 2026-04-22 14:08 | 24.65543 | 56.40146 | 17972 ft | 415 kts | 328° |
| 2026-04-22 14:08 | 24.68025 | 56.38534 | 17328 ft | 413 kts | 327° |
| 2026-04-22 14:08 | 24.70483 | 56.36920 | 16721 ft | 410 kts | 327° |
| 2026-04-22 14:09 | 24.72914 | 56.35312 | 16150 ft | 407 kts | 327° |
| 2026-04-22 14:09 | 24.75326 | 56.33710 | 15591 ft | 404 kts | 327° |
| 2026-04-22 14:09 | 24.77707 | 56.32125 | 15034 ft | 401 kts | 327° |
| 2026-04-22 14:09 | 24.80093 | 56.30537 | 14479 ft | 399 kts | 327° |
| 2026-04-22 14:10 | 24.82465 | 56.28957 | 13911 ft | 397 kts | 326° |
| 2026-04-22 14:10 | 24.84777 | 56.27413 | 13501 ft | 389 kts | 326° |
| 2026-04-22 14:10 | 24.86892 | 56.25631 | 13222 ft | 376 kts | 314° |
| 2026-04-22 14:10 | 24.88613 | 56.23545 | 13077 ft | 361 kts | 306° |
| 2026-04-22 14:11 | 24.89974 | 56.21292 | 12924 ft | 347 kts | 297° |
| 2026-04-22 14:11 | 24.91121 | 56.19004 | 12782 ft | 336 kts | 297° |
| 2026-04-22 14:11 | 24.92228 | 56.16792 | 12642 ft | 326 kts | 297° |
| 2026-04-22 14:11 | 24.93316 | 56.14634 | 12507 ft | 316 kts | 296° |
| 2026-04-22 14:12 | 24.94370 | 56.12556 | 12371 ft | 306 kts | 297° |
| 2026-04-22 14:12 | 24.95391 | 56.10551 | 12258 ft | 295 kts | 297° |
| 2026-04-22 14:12 | 24.96383 | 56.08608 | 12128 ft | 285 kts | 296° |
| 2026-04-22 14:12 | 24.97338 | 56.06771 | 12070 ft | 274 kts | 300° |
| 2026-04-22 14:13 | 24.98505 | 56.05150 | 12038 ft | 271 kts | 309° |
| 2026-04-22 14:13 | 24.99683 | 56.03590 | 11864 ft | 258 kts | 294° |
| 2026-04-22 14:13 | 25.00282 | 56.01728 | 11283 ft | 261 kts | 281° |
| 2026-04-22 14:13 | 25.00722 | 55.99817 | 10806 ft | 251 kts | 282° |
| 2026-04-22 14:14 | 25.01158 | 55.98006 | 10468 ft | 240 kts | 282° |
| 2026-04-22 14:14 | 25.01594 | 55.96242 | 10196 ft | 239 kts | 282° |
| 2026-04-22 14:14 | 25.02040 | 55.94477 | 9907 ft | 239 kts | 283° |
| 2026-04-22 14:14 | 25.02494 | 55.92707 | 9625 ft | 240 kts | 283° |
| 2026-04-22 14:15 | 25.02953 | 55.90937 | 9299 ft | 239 kts | 283° |
| 2026-04-22 14:15 | 25.03409 | 55.89200 | 9055 ft | 234 kts | 283° |
| 2026-04-22 14:15 | 25.03850 | 55.87528 | 8706 ft | 224 kts | 283° |
| 2026-04-22 14:15 | 25.04272 | 55.85938 | 8429 ft | 207 kts | 283° |
| 2026-04-22 14:16 | 25.04663 | 55.84468 | 8218 ft | 195 kts | 283° |
| 2026-04-22 14:16 | 25.05031 | 55.83080 | 7976 ft | 188 kts | 283° |
| 2026-04-22 14:16 | 25.05404 | 55.81672 | 7758 ft | 190 kts | 283° |
| 2026-04-22 14:16 | 25.05776 | 55.80268 | 7555 ft | 191 kts | 283° |
| 2026-04-22 14:17 | 25.06149 | 55.78858 | 7311 ft | 192 kts | 283° |
| 2026-04-22 14:17 | 25.06524 | 55.77446 | 7072 ft | 193 kts | 282° |
| 2026-04-22 14:17 | 25.06902 | 55.76027 | 6845 ft | 194 kts | 282° |
| 2026-04-22 14:17 | 25.07279 | 55.74595 | 6603 ft | 194 kts | 283° |
| 2026-04-22 14:18 | 25.07655 | 55.73186 | 6375 ft | 193 kts | 282° |
| 2026-04-22 14:18 | 25.08029 | 55.71780 | 6126 ft | 189 kts | 283° |
| 2026-04-22 14:18 | 25.08394 | 55.70408 | 5909 ft | 183 kts | 281° |
| 2026-04-22 14:18 | 25.08750 | 55.69069 | 5663 ft | 182 kts | 282° |
| 2026-04-22 14:19 | 25.09101 | 55.67740 | 5283 ft | 180 kts | 282° |
| 2026-04-22 14:19 | 25.09451 | 55.66407 | 4860 ft | 184 kts | 283° |
| 2026-04-22 14:19 | 25.09814 | 55.65047 | 4459 ft | 184 kts | 283° |
| 2026-04-22 14:19 | 25.10254 | 55.63743 | 4150 ft | 180 kts | 292° |
| 2026-04-22 14:20 | 25.11512 | 55.61327 | 3324 ft | 185 kts | 299° |
| 2026-04-22 14:20 | 25.12178 | 55.60111 | 3097 ft | 193 kts | 300° |
| 2026-04-22 14:20 | 25.12895 | 55.58818 | 3043 ft | 201 kts | 301° |
| 2026-04-22 14:21 | 25.14361 | 55.56168 | 3017 ft | 202 kts | 300° |
| 2026-04-22 14:21 | 25.15093 | 55.54851 | 3013 ft | 200 kts | 300° |
| 2026-04-22 14:22 | 25.16528 | 55.52259 | 2517 ft | 188 kts | 300° |
| 2026-04-22 14:22 | 25.17183 | 55.51077 | 2295 ft | 176 kts | 300° |
| 2026-04-22 14:22 | 25.18402 | 55.48871 | 1878 ft | 162 kts | 304° |
| 2026-04-22 14:23 | 25.18989 | 55.47813 | 1678 ft | 163 kts | 305° |
| 2026-04-22 14:23 | 25.19598 | 55.46721 | 1493 ft | 173 kts | 303° |
| 2026-04-22 14:23 | 25.20228 | 55.45580 | 1285 ft | 171 kts | 304° |
| 2026-04-22 14:23 | 25.20828 | 55.44491 | 1043 ft | 159 kts | 306° |
| 2026-04-22 14:24 | 25.21408 | 55.43440 | 843 ft | 161 kts | 305° |
| 2026-04-22 14:24 | 25.21998 | 55.42400 | 678 ft | 162 kts | 304° |
| 2026-04-22 14:24 | 25.22567 | 55.41337 | 454 ft | 158 kts | 304° |
| 2026-04-22 14:24 | 25.23131 | 55.40322 | 238 ft | 156 kts | 303° |
| 2026-04-22 14:25 | 25.23695 | 55.39298 | 43 ft | 159 kts | 304° |
| 2026-04-22 14:25 | 25.24229 | 55.38341 | 31 ft | 122 kts | 301° |
| 2026-04-22 14:25 | 25.24571 | 55.37719 | 27 ft | 70 kts | 302° |
| 2026-04-22 14:25 | 25.24767 | 55.37351 | 28 ft | 48 kts | 292° |
| 2026-04-22 14:26 | 25.24786 | 55.37074 | 27 ft | 23 kts | 271° |
| 2026-04-22 14:26 | 25.24771 | 55.36958 | 27 ft | 9 kts | 231° |
| 2026-04-22 14:26 | 25.24765 | 55.36953 | 26 ft | 1 kts | 224° |
| 2026-04-22 14:26 | 25.24758 | 55.36947 | 26 ft | 2 kts | 214° |
| 2026-04-22 14:27 | 25.24748 | 55.36941 | 26 ft | 0 kts | 210° |
| 2026-04-22 14:27 | 25.24748 | 55.36940 | 26 ft | 2 kts | 210° |
| 2026-04-22 14:27 | 25.24683 | 55.36901 | 30 ft | 15 kts | 209° |
| 2026-04-22 14:28 | 25.24594 | 55.36841 | 29 ft | 15 kts | 212° |
| 2026-04-22 14:28 | 25.24502 | 55.36780 | 28 ft | 15 kts | 211° |
| 2026-04-22 14:28 | 25.24418 | 55.36709 | 31 ft | 15 kts | 229° |
| 2026-04-22 14:28 | 25.24377 | 55.36603 | 28 ft | 15 kts | 262° |
| 2026-04-22 14:29 | 25.24384 | 55.36486 | 26 ft | 15 kts | 286° |
| 2026-04-22 14:29 | 25.24433 | 55.36382 | 28 ft | 15 kts | 302° |
| 2026-04-22 14:29 | 25.24494 | 55.36273 | 30 ft | 19 kts | 302° |
| 2026-04-22 14:29 | 25.24563 | 55.36151 | 31 ft | 19 kts | 302° |
| 2026-04-22 14:30 | 25.24631 | 55.36030 | 28 ft | 19 kts | 302° |
| 2026-04-22 14:30 | 25.24700 | 55.35907 | 30 ft | 19 kts | 301° |
| 2026-04-22 14:30 | 25.24769 | 55.35784 | 28 ft | 19 kts | 302° |
| 2026-04-22 14:30 | 25.24842 | 55.35666 | 28 ft | 19 kts | 306° |
| 2026-04-22 14:31 | 25.24915 | 55.35549 | 28 ft | 19 kts | 303° |
| 2026-04-22 14:31 | 25.24974 | 55.35485 | 31 ft | 10 kts | 4° |
| 2026-04-22 14:31 | 25.25034 | 55.35523 | 29 ft | 10 kts | 33° |
| 2026-04-22 14:31 | 25.25079 | 55.35554 | 29 ft | 7 kts | 30° |
| 2026-04-22 14:32 | 25.25093 | 55.35563 | 28 ft | 0 kts | 31° |